sensor_id;sensor_type;location;lat;lon;timestamp;pressure;altitude;pressure_sealevel;temperature;humidity
3260;BME280;22469;48.150;14.004;2023-02-28T00:01:57;98784.78;;;3.29;55.40
3260;BME280;22469;48.150;14.004;2023-02-28T00:04:41;98780.59;;;3.35;55.19
3260;BME280;22469;48.150;14.004;2023-02-28T00:07:26;98780.28;;;3.04;56.09
3260;BME280;22469;48.150;14.004;2023-02-28T00:10:14;98778.59;;;3.03;56.13
3260;BME280;22469;48.150;14.004;2023-02-28T00:13:06;98775.19;;;3.01;56.52
3260;BME280;22469;48.150;14.004;2023-02-28T00:15:59;98776.25;;;3.24;55.82
3260;BME280;22469;48.150;14.004;2023-02-28T00:18:44;98777.13;;;3.26;55.67
3260;BME280;22469;48.150;14.004;2023-02-28T00:21:29;98780.19;;;2.96;56.33
3260;BME280;22469;48.150;14.004;2023-02-28T00:24:13;98754.88;;;2.95;56.35
3260;BME280;22469;48.150;14.004;2023-02-28T00:26:58;98769.28;;;3.03;56.53
3260;BME280;22469;48.150;14.004;2023-02-28T00:29:42;98765.94;;;3.07;56.27
3260;BME280;22469;48.150;14.004;2023-02-28T00:32:26;98761.03;;;3.23;55.88
3260;BME280;22469;48.150;14.004;2023-02-28T00:35:11;98772.06;;;3.26;55.42
3260;BME280;22469;48.150;14.004;2023-02-28T00:37:56;98762.47;;;2.95;55.76
3260;BME280;22469;48.150;14.004;2023-02-28T00:40:40;98762.53;;;3.02;56.36
3260;BME280;22469;48.150;14.004;2023-02-28T00:43:25;98758.28;;;2.98;57.05
3260;BME280;22469;48.150;14.004;2023-02-28T00:46:10;98762.56;;;3.07;56.14
3260;BME280;22469;48.150;14.004;2023-02-28T00:48:37;98758.34;;;3.06;56.15
3260;BME280;22469;48.150;14.004;2023-02-28T00:51:05;98760.13;;;3.15;56.39
3260;BME280;22469;48.150;14.004;2023-02-28T00:53:32;98761.00;;;3.20;55.86
3260;BME280;22469;48.150;14.004;2023-02-28T00:55:59;98755.09;;;3.19;55.52
3260;BME280;22469;48.150;14.004;2023-02-28T00:58:27;98749.03;;;3.03;56.45
3260;BME280;22469;48.150;14.004;2023-02-28T01:00:54;98754.94;;;3.02;56.43
3260;BME280;22469;48.150;14.004;2023-02-28T01:03:22;98749.78;;;2.96;56.65
3260;BME280;22469;48.150;14.004;2023-02-28T01:05:50;98738.91;;;3.05;56.36
3260;BME280;22469;48.150;14.004;2023-02-28T01:08:17;98744.19;;;3.25;55.94
3260;BME280;22469;48.150;14.004;2023-02-28T01:10:45;98743.34;;;3.26;55.91
3260;BME280;22469;48.150;14.004;2023-02-28T01:13:12;98743.22;;;3.14;56.69
3260;BME280;22469;48.150;14.004;2023-02-28T01:15:50;98733.13;;;3.18;56.42
3260;BME280;22469;48.150;14.004;2023-02-28T01:18:19;98733.13;;;3.18;56.23
3260;BME280;22469;48.150;14.004;2023-02-28T01:20:48;98728.91;;;3.20;55.93
3260;BME280;22469;48.150;14.004;2023-02-28T01:23:15;98728.88;;;3.17;56.26
3260;BME280;22469;48.150;14.004;2023-02-28T01:25:42;98728.94;;;3.23;56.13
3260;BME280;22469;48.150;14.004;2023-02-28T01:28:09;98727.28;;;3.27;55.90
3260;BME280;22469;48.150;14.004;2023-02-28T01:30:36;98721.31;;;3.19;55.58
3260;BME280;22469;48.150;14.004;2023-02-28T01:33:03;98727.34;;;3.35;55.57
3260;BME280;22469;48.150;14.004;2023-02-28T01:35:34;98722.81;;;3.00;56.52
3260;BME280;22469;48.150;14.004;2023-02-28T01:38:02;98716.78;;;2.90;56.97
3260;BME280;22469;48.150;14.004;2023-02-28T01:40:46;98722.75;;;2.94;56.98
3260;BME280;22469;48.150;14.004;2023-02-28T01:43:23;98725.22;;;2.88;56.78
3260;BME280;22469;48.150;14.004;2023-02-28T01:45:58;98721.44;;;2.52;57.76
3260;BME280;22469;48.150;14.004;2023-02-28T01:48:32;98713.69;;;2.38;58.36
3260;BME280;22469;48.150;14.004;2023-02-28T01:51:08;98718.31;;;2.73;57.80
3260;BME280;22469;48.150;14.004;2023-02-28T01:53:51;98714.97;;;2.75;57.09
3260;BME280;22469;48.150;14.004;2023-02-28T01:56:27;98710.63;;;2.67;57.75
3260;BME280;22469;48.150;14.004;2023-02-28T01:58:57;98709.13;;;2.82;57.51
3260;BME280;22469;48.150;14.004;2023-02-28T02:01:27;98709.25;;;2.95;56.56
3260;BME280;22469;48.150;14.004;2023-02-28T02:03:57;98708.47;;;3.02;56.69
3260;BME280;22469;48.150;14.004;2023-02-28T02:06:46;98709.16;;;2.85;57.45
3260;BME280;22469;48.150;14.004;2023-02-28T02:09:14;98704.97;;;2.88;57.33
3260;BME280;22469;48.150;14.004;2023-02-28T02:11:43;98705.88;;;2.97;57.10
3260;BME280;22469;48.150;14.004;2023-02-28T02:22:37;98693.31;;;3.05;56.42
3260;BME280;22469;48.150;14.004;2023-02-28T02:25:36;98695.75;;;2.96;56.81
3260;BME280;22469;48.150;14.004;2023-02-28T02:31:52;98688.47;;;2.44;58.42
3260;BME280;22469;48.150;14.004;2023-02-28T02:37:32;98688.69;;;2.64;57.78
3260;BME280;22469;48.150;14.004;2023-02-28T02:46:06;98678.47;;;2.56;58.14
3260;BME280;22469;48.150;14.004;2023-02-28T02:48:40;98687.75;;;2.59;58.46
3260;BME280;22469;48.150;14.004;2023-02-28T02:51:16;98682.78;;;2.67;58.18
3260;BME280;22469;48.150;14.004;2023-02-28T02:53:54;98679.97;;;2.42;58.66
3260;BME280;22469;48.150;14.004;2023-02-28T02:56:27;98689.09;;;2.26;59.11
3260;BME280;22469;48.150;14.004;2023-02-28T02:59:01;98682.50;;;2.42;58.89
3260;BME280;22469;48.150;14.004;2023-02-28T03:01:31;98680.19;;;2.62;58.21
3260;BME280;22469;48.150;14.004;2023-02-28T03:04:02;98680.34;;;2.74;57.75
3260;BME280;22469;48.150;14.004;2023-02-28T03:06:31;98687.69;;;2.53;58.02
3260;BME280;22469;48.150;14.004;2023-02-28T03:09:00;98690.34;;;2.62;58.15
3260;BME280;22469;48.150;14.004;2023-02-28T03:11:27;98680.41;;;2.80;57.80
3260;BME280;22469;48.150;14.004;2023-02-28T03:19:31;98686.03;;;2.53;58.17
3260;BME280;22469;48.150;14.004;2023-02-28T03:27:46;98681.91;;;2.63;57.80
3260;BME280;22469;48.150;14.004;2023-02-28T03:30:35;98684.56;;;2.74;57.71
3260;BME280;22469;48.150;14.004;2023-02-28T03:33:16;98685.56;;;2.12;59.06
3260;BME280;22469;48.150;14.004;2023-02-28T03:35:59;98686.69;;;2.37;58.68
3260;BME280;22469;48.150;14.004;2023-02-28T03:41:21;98691.91;;;2.51;58.58
3260;BME280;22469;48.150;14.004;2023-02-28T03:44:04;98685.16;;;2.53;57.79
3260;BME280;22469;48.150;14.004;2023-02-28T03:46:37;98675.06;;;2.56;57.73
3260;BME280;22469;48.150;14.004;2023-02-28T03:49:20;98680.81;;;2.43;58.49
3260;BME280;22469;48.150;14.004;2023-02-28T03:51:51;98682.63;;;2.51;57.98
3260;BME280;22469;48.150;14.004;2023-02-28T03:54:25;98670.78;;;2.49;57.82
3260;BME280;22469;48.150;14.004;2023-02-28T03:57:18;98677.53;;;2.47;58.13
3260;BME280;22469;48.150;14.004;2023-02-28T03:59:59;98675.91;;;2.53;57.66
3260;BME280;22469;48.150;14.004;2023-02-28T04:02:27;98684.34;;;2.55;57.91
3260;BME280;22469;48.150;14.004;2023-02-28T04:04:54;98686.94;;;2.60;57.64
3260;BME280;22469;48.150;14.004;2023-02-28T04:07:21;98685.03;;;2.42;57.32
3260;BME280;22469;48.150;14.004;2023-02-28T04:09:48;98689.34;;;2.48;57.57
3260;BME280;22469;48.150;14.004;2023-02-28T04:12:15;98687.75;;;2.57;56.91
3260;BME280;22469;48.150;14.004;2023-02-28T04:14:42;98684.44;;;2.63;57.05
3260;BME280;22469;48.150;14.004;2023-02-28T04:17:09;98690.38;;;2.64;56.87
3260;BME280;22469;48.150;14.004;2023-02-28T04:19:36;98693.78;;;2.67;56.58
3260;BME280;22469;48.150;14.004;2023-02-28T04:22:03;98691.28;;;2.73;56.63
3260;BME280;22469;48.150;14.004;2023-02-28T04:24:30;98698.06;;;2.76;56.44
3260;BME280;22469;48.150;14.004;2023-02-28T04:26:57;98692.19;;;2.78;56.11
3260;BME280;22469;48.150;14.004;2023-02-28T04:29:28;98680.31;;;2.71;56.30
3260;BME280;22469;48.150;14.004;2023-02-28T04:31:57;98686.19;;;2.67;56.45
3260;BME280;22469;48.150;14.004;2023-02-28T04:34:27;98672.56;;;2.59;56.27
3260;BME280;22469;48.150;14.004;2023-02-28T04:36:56;98686.09;;;2.61;56.15
3260;BME280;22469;48.150;14.004;2023-02-28T04:39:40;98681.75;;;2.49;56.73
3260;BME280;22469;48.150;14.004;2023-02-28T04:42:08;98685.03;;;2.42;57.02
3260;BME280;22469;48.150;14.004;2023-02-28T04:44:36;98676.75;;;2.54;56.58
3260;BME280;22469;48.150;14.004;2023-02-28T04:47:03;98683.59;;;2.63;56.53
3260;BME280;22469;48.150;14.004;2023-02-28T04:49:30;98679.31;;;2.58;55.89
3260;BME280;22469;48.150;14.004;2023-02-28T04:51:57;98677.00;;;2.04;56.77
3260;BME280;22469;48.150;14.004;2023-02-28T04:54:24;98683.16;;;2.23;57.34
3260;BME280;22469;48.150;14.004;2023-02-28T04:56:51;98682.06;;;2.04;57.82
3260;BME280;22469;48.150;14.004;2023-02-28T04:59:18;98686.47;;;2.20;57.33
3260;BME280;22469;48.150;14.004;2023-02-28T05:01:47;98677.22;;;2.22;57.31
3260;BME280;22469;48.150;14.004;2023-02-28T05:04:15;98680.44;;;2.10;57.83
3260;BME280;22469;48.150;14.004;2023-02-28T05:06:43;98680.66;;;2.29;57.33
3260;BME280;22469;48.150;14.004;2023-02-28T05:09:10;98674.84;;;2.34;56.99
3260;BME280;22469;48.150;14.004;2023-02-28T05:11:40;98673.84;;;2.22;57.24
3260;BME280;22469;48.150;14.004;2023-02-28T05:14:13;98672.34;;;2.36;56.71
3260;BME280;22469;48.150;14.004;2023-02-28T05:16:41;98668.94;;;2.34;56.64
3260;BME280;22469;48.150;14.004;2023-02-28T05:19:08;98680.63;;;2.23;56.81
3260;BME280;22469;48.150;14.004;2023-02-28T05:24:10;98677.84;;;2.04;56.98
3260;BME280;22469;48.150;14.004;2023-02-28T05:26:41;98682.19;;;2.13;57.16
3260;BME280;22469;48.150;14.004;2023-02-28T05:29:09;98685.63;;;2.20;57.45
3260;BME280;22469;48.150;14.004;2023-02-28T05:31:37;98683.69;;;1.99;57.80
3260;BME280;22469;48.150;14.004;2023-02-28T05:34:05;98688.94;;;2.12;57.67
3260;BME280;22469;48.150;14.004;2023-02-28T05:36:32;98686.47;;;2.20;57.22
3260;BME280;22469;48.150;14.004;2023-02-28T05:38:59;98690.34;;;1.92;57.52
3260;BME280;22469;48.150;14.004;2023-02-28T05:41:26;98694.84;;;2.13;57.60
3260;BME280;22469;48.150;14.004;2023-02-28T05:43:54;98695.69;;;2.13;57.23
3260;BME280;22469;48.150;14.004;2023-02-28T05:46:21;98688.16;;;2.20;57.50
3260;BME280;22469;48.150;14.004;2023-02-28T05:48:50;98686.59;;;2.29;57.08
3260;BME280;22469;48.150;14.004;2023-02-28T05:51:17;98689.16;;;2.32;56.54
3260;BME280;22469;48.150;14.004;2023-02-28T05:53:45;98693.00;;;2.03;57.22
3260;BME280;22469;48.150;14.004;2023-02-28T05:56:12;98690.56;;;2.10;56.87
3260;BME280;22469;48.150;14.004;2023-02-28T05:58:39;98695.50;;;2.01;57.08
3260;BME280;22469;48.150;14.004;2023-02-28T06:03:47;98698.22;;;2.15;57.10
3260;BME280;22469;48.150;14.004;2023-02-28T06:06:14;98702.44;;;2.14;56.60
3260;BME280;22469;48.150;14.004;2023-02-28T06:08:41;98700.91;;;2.27;56.66
3260;BME280;22469;48.150;14.004;2023-02-28T06:11:10;98705.16;;;2.31;56.44
3260;BME280;22469;48.150;14.004;2023-02-28T06:13:36;98718.63;;;2.26;56.60
3260;BME280;22469;48.150;14.004;2023-02-28T06:16:04;98722.97;;;2.39;56.36
3260;BME280;22469;48.150;14.004;2023-02-28T06:18:31;98718.91;;;2.50;56.17
3260;BME280;22469;48.150;14.004;2023-02-28T06:20:58;98715.56;;;2.54;56.11
3260;BME280;22469;48.150;14.004;2023-02-28T06:23:25;98720.63;;;2.54;55.72
3260;BME280;22469;48.150;14.004;2023-02-28T06:25:52;98720.59;;;2.50;55.61
3260;BME280;22469;48.150;14.004;2023-02-28T06:28:20;98724.09;;;2.63;55.89
3260;BME280;22469;48.150;14.004;2023-02-28T06:30:47;98722.59;;;2.78;55.49
3260;BME280;22469;48.150;14.004;2023-02-28T06:33:14;98724.47;;;2.95;54.85
3260;BME280;22469;48.150;14.004;2023-02-28T06:35:44;98728.81;;;3.08;54.99
3260;BME280;22469;48.150;14.004;2023-02-28T06:38:11;98734.72;;;3.08;53.95
3260;BME280;22469;48.150;14.004;2023-02-28T06:40:38;98733.94;;;3.17;54.62
3260;BME280;22469;48.150;14.004;2023-02-28T06:43:05;98738.25;;;3.27;53.99
3260;BME280;22469;48.150;14.004;2023-02-28T06:45:32;98745.97;;;3.35;53.50
3260;BME280;22469;48.150;14.004;2023-02-28T06:47:59;98738.28;;;3.30;53.21
3260;BME280;22469;48.150;14.004;2023-02-28T06:50:26;98744.34;;;3.43;53.64
3260;BME280;22469;48.150;14.004;2023-02-28T06:52:56;98745.13;;;3.38;52.62
3260;BME280;22469;48.150;14.004;2023-02-28T06:55:23;98748.94;;;2.96;53.53
3260;BME280;22469;48.150;14.004;2023-02-28T06:57:50;98749.94;;;3.10;53.35
3260;BME280;22469;48.150;14.004;2023-02-28T07:00:17;98742.25;;;3.04;53.73
3260;BME280;22469;48.150;14.004;2023-02-28T07:02:44;98750.13;;;3.28;53.28
3260;BME280;22469;48.150;14.004;2023-02-28T07:05:11;98747.75;;;3.47;52.24
3260;BME280;22469;48.150;14.004;2023-02-28T07:07:38;98748.44;;;3.30;52.96
3260;BME280;22469;48.150;14.004;2023-02-28T07:10:11;98744.28;;;3.42;53.45
3260;BME280;22469;48.150;14.004;2023-02-28T07:12:39;98741.75;;;3.42;52.83
3260;BME280;22469;48.150;14.004;2023-02-28T07:15:06;98740.09;;;3.44;52.58
3260;BME280;22469;48.150;14.004;2023-02-28T07:17:34;98749.59;;;3.66;52.30
3260;BME280;22469;48.150;14.004;2023-02-28T07:20:01;98748.84;;;3.81;52.89
3260;BME280;22469;48.150;14.004;2023-02-28T07:22:28;98742.94;;;3.85;53.14
3260;BME280;22469;48.150;14.004;2023-02-28T07:24:55;98748.94;;;3.96;52.32
3260;BME280;22469;48.150;14.004;2023-02-28T07:27:22;98754.06;;;4.01;51.98
3260;BME280;22469;48.150;14.004;2023-02-28T07:29:52;98748.09;;;3.94;51.95
3260;BME280;22469;48.150;14.004;2023-02-28T07:32:21;98751.66;;;4.21;51.81
3260;BME280;22469;48.150;14.004;2023-02-28T07:34:48;98741.53;;;4.28;51.66
3260;BME280;22469;48.150;14.004;2023-02-28T07:37:15;98753.44;;;4.45;51.79
3260;BME280;22469;48.150;14.004;2023-02-28T07:39:42;98744.97;;;4.43;50.86
3260;BME280;22469;48.150;14.004;2023-02-28T07:42:09;98749.25;;;4.58;50.71
3260;BME280;22469;48.150;14.004;2023-02-28T07:44:39;98740.84;;;4.66;50.88
3260;BME280;22469;48.150;14.004;2023-02-28T07:47:08;98750.16;;;4.73;50.63
3260;BME280;22469;48.150;14.004;2023-02-28T07:49:37;98743.34;;;4.63;50.60
3260;BME280;22469;48.150;14.004;2023-02-28T07:52:06;98754.13;;;4.15;51.65
3260;BME280;22469;48.150;14.004;2023-02-28T07:54:33;98746.59;;;4.30;51.28
3260;BME280;22469;48.150;14.004;2023-02-28T07:57:00;98748.38;;;4.45;50.80
3260;BME280;22469;48.150;14.004;2023-02-28T07:59:27;98750.13;;;4.63;51.48
3260;BME280;22469;48.150;14.004;2023-02-28T08:01:58;98757.75;;;4.67;51.54
3260;BME280;22469;48.150;14.004;2023-02-28T08:04:26;98751.78;;;4.48;50.81
3260;BME280;22469;48.150;14.004;2023-02-28T08:06:53;98749.25;;;4.53;50.69
3260;BME280;22469;48.150;14.004;2023-02-28T08:09:20;98752.66;;;4.64;50.83
3260;BME280;22469;48.150;14.004;2023-02-28T08:11:47;98743.38;;;4.62;50.20
3260;BME280;22469;48.150;14.004;2023-02-28T08:14:14;98750.19;;;4.77;49.60
3260;BME280;22469;48.150;14.004;2023-02-28T08:16:41;98743.38;;;4.68;50.44
3260;BME280;22469;48.150;14.004;2023-02-28T08:19:09;98751.75;;;4.47;50.43
3260;BME280;22469;48.150;14.004;2023-02-28T08:21:36;98749.22;;;4.50;51.46
3260;BME280;22469;48.150;14.004;2023-02-28T08:24:03;98748.47;;;4.71;50.69
3260;BME280;22469;48.150;14.004;2023-02-28T08:26:30;98737.50;;;4.80;50.56
3260;BME280;22469;48.150;14.004;2023-02-28T08:28:57;98746.75;;;4.64;51.41
3260;BME280;22469;48.150;14.004;2023-02-28T08:31:26;98750.94;;;4.54;51.05
3260;BME280;22469;48.150;14.004;2023-02-28T08:33:55;98751.78;;;4.53;51.83
3260;BME280;22469;48.150;14.004;2023-02-28T08:36:26;98751.84;;;4.74;51.68
3260;BME280;22469;48.150;14.004;2023-02-28T08:38:56;98751.81;;;4.59;50.89
3260;BME280;22469;48.150;14.004;2023-02-28T08:41:24;98770.44;;;4.57;50.98
3260;BME280;22469;48.150;14.004;2023-02-28T08:43:52;98759.34;;;4.42;51.24
3260;BME280;22469;48.150;14.004;2023-02-28T08:46:20;98771.19;;;4.36;51.48
3260;BME280;22469;48.150;14.004;2023-02-28T08:48:52;98770.25;;;4.23;52.32
3260;BME280;22469;48.150;14.004;2023-02-28T08:51:21;98773.13;;;3.50;52.97
3260;BME280;22469;48.150;14.004;2023-02-28T08:53:56;98780.84;;;3.65;52.55
3260;BME280;22469;48.150;14.004;2023-02-28T08:56:27;98781.72;;;3.67;52.67
3260;BME280;22469;48.150;14.004;2023-02-28T08:58:56;98784.47;;;3.96;52.44
3260;BME280;22469;48.150;14.004;2023-02-28T09:01:26;98783.50;;;3.79;53.38
3260;BME280;22469;48.150;14.004;2023-02-28T09:03:56;98773.56;;;4.13;52.46
3260;BME280;22469;48.150;14.004;2023-02-28T09:06:25;98772.91;;;4.46;51.38
3260;BME280;22469;48.150;14.004;2023-02-28T09:08:56;98777.25;;;4.70;51.02
3260;BME280;22469;48.150;14.004;2023-02-28T09:11:25;98770.25;;;4.23;50.55
3260;BME280;22469;48.150;14.004;2023-02-28T09:13:52;98780.59;;;4.61;50.75
3260;BME280;22469;48.150;14.004;2023-02-28T09:16:19;98778.22;;;5.03;50.15
3260;BME280;22469;48.150;14.004;2023-02-28T09:18:47;98776.41;;;4.68;50.14
3260;BME280;22469;48.150;14.004;2023-02-28T09:21:16;98779.06;;;5.00;50.89
3260;BME280;22469;48.150;14.004;2023-02-28T09:23:46;98777.44;;;5.23;49.64
3260;BME280;22469;48.150;14.004;2023-02-28T09:26:16;98774.91;;;5.42;48.42
3260;BME280;22469;48.150;14.004;2023-02-28T09:28:46;98786.78;;;5.52;49.60
3260;BME280;22469;48.150;14.004;2023-02-28T09:31:15;98789.31;;;5.77;49.07
3260;BME280;22469;48.150;14.004;2023-02-28T09:33:43;98797.78;;;5.50;48.26
3260;BME280;22469;48.150;14.004;2023-02-28T09:36:10;98790.19;;;5.89;48.54
3260;BME280;22469;48.150;14.004;2023-02-28T09:38:37;98795.28;;;6.00;47.12
3260;BME280;22469;48.150;14.004;2023-02-28T09:41:21;98792.75;;;6.06;48.18
3260;BME280;22469;48.150;14.004;2023-02-28T09:43:55;98796.16;;;6.05;47.50
3260;BME280;22469;48.150;14.004;2023-02-28T09:46:39;98795.28;;;6.09;47.18
3260;BME280;22469;48.150;14.004;2023-02-28T09:49:14;98793.53;;;6.37;47.44
3260;BME280;22469;48.150;14.004;2023-02-28T09:52:09;98800.38;;;6.17;47.29
3260;BME280;22469;48.150;14.004;2023-02-28T09:54:38;98799.47;;;6.35;47.09
3260;BME280;22469;48.150;14.004;2023-02-28T10:06:04;98801.63;;;7.33;45.15
3260;BME280;22469;48.150;14.004;2023-02-28T10:08:38;98803.31;;;7.32;44.60
3260;BME280;22469;48.150;14.004;2023-02-28T10:11:15;98808.25;;;7.55;44.83
3260;BME280;22469;48.150;14.004;2023-02-28T10:14:03;98811.06;;;7.14;44.26
3260;BME280;22469;48.150;14.004;2023-02-28T10:16:40;98813.69;;;6.97;45.97
3260;BME280;22469;48.150;14.004;2023-02-28T10:19:30;98810.19;;;7.20;45.57
3260;BME280;22469;48.150;14.004;2023-02-28T10:25:26;98813.69;;;7.08;45.39
3260;BME280;22469;48.150;14.004;2023-02-28T10:28:05;98814.59;;;6.92;45.79
3260;BME280;22469;48.150;14.004;2023-02-28T10:30:39;98819.59;;;7.11;45.94
3260;BME280;22469;48.150;14.004;2023-02-28T10:33:17;98820.41;;;7.17;46.25
3260;BME280;22469;48.150;14.004;2023-02-28T10:35:51;98823.84;;;7.09;45.79
3260;BME280;22469;48.150;14.004;2023-02-28T10:38:22;98806.81;;;7.19;45.10
3260;BME280;22469;48.150;14.004;2023-02-28T10:41:10;98809.22;;;7.41;44.94
3260;BME280;22469;48.150;14.004;2023-02-28T10:44:13;98807.28;;;7.72;45.34
3260;BME280;22469;48.150;14.004;2023-02-28T10:46:45;98802.25;;;7.64;44.29
3260;BME280;22469;48.150;14.004;2023-02-28T10:49:20;98797.91;;;7.77;45.28
3260;BME280;22469;48.150;14.004;2023-02-28T10:51:53;98793.94;;;7.34;44.54
3260;BME280;22469;48.150;14.004;2023-02-28T10:54:33;98810.00;;;7.50;45.13
3260;BME280;22469;48.150;14.004;2023-02-28T10:59:33;98797.22;;;7.53;44.42
3260;BME280;22469;48.150;14.004;2023-02-28T11:02:00;98800.41;;;7.84;43.46
3260;BME280;22469;48.150;14.004;2023-02-28T11:07:00;98785.66;;;8.14;43.21
3260;BME280;22469;48.150;14.004;2023-02-28T11:09:35;98783.81;;;8.28;43.22
3260;BME280;22469;48.150;14.004;2023-02-28T11:15:35;98783.31;;;7.90;43.48
3260;BME280;22469;48.150;14.004;2023-02-28T11:19:06;98788.09;;;7.17;44.54
3260;BME280;22469;48.150;14.004;2023-02-28T11:21:29;98776.72;;;7.64;45.86
3260;BME280;22469;48.150;14.004;2023-02-28T11:26:47;98781.41;;;8.15;42.90
3260;BME280;22469;48.150;14.004;2023-02-28T11:29:30;98779.75;;;8.11;43.36
3260;BME280;22469;48.150;14.004;2023-02-28T11:34:29;98773.88;;;7.98;43.15
3260;BME280;22469;48.150;14.004;2023-02-28T11:36:58;98775.75;;;7.80;43.71
3260;BME280;22469;48.150;14.004;2023-02-28T11:39:26;98779.19;;;7.75;44.40
3260;BME280;22469;48.150;14.004;2023-02-28T11:47:33;98770.50;;;7.97;43.72
3260;BME280;22469;48.150;14.004;2023-02-28T11:56:33;98753.06;;;8.39;42.11
3260;BME280;22469;48.150;14.004;2023-02-28T11:59:33;98754.69;;;7.51;44.11
3260;BME280;22469;48.150;14.004;2023-02-28T12:07:47;98756.94;;;7.89;44.29
3260;BME280;22469;48.150;14.004;2023-02-28T12:10:29;98748.16;;;8.18;42.87
3260;BME280;22469;48.150;14.004;2023-02-28T12:27:23;98735.38;;;8.16;44.20
3260;BME280;22469;48.150;14.004;2023-02-28T12:30:00;98732.19;;;7.97;42.94
3260;BME280;22469;48.150;14.004;2023-02-28T12:40:21;98731.72;;;8.42;44.10
3260;BME280;22469;48.150;14.004;2023-02-28T12:45:45;98731.63;;;8.49;43.82
3260;BME280;22469;48.150;14.004;2023-02-28T12:48:24;98735.50;;;8.04;45.13
3260;BME280;22469;48.150;14.004;2023-02-28T12:51:05;98734.59;;;8.11;45.04
3260;BME280;22469;48.150;14.004;2023-02-28T12:56:46;98729.44;;;8.13;45.01
3260;BME280;22469;48.150;14.004;2023-02-28T13:10:22;98710.78;;;8.78;43.60
3260;BME280;22469;48.150;14.004;2023-02-28T13:12:53;98711.19;;;9.13;44.07
3260;BME280;22469;48.150;14.004;2023-02-28T13:15:26;98714.50;;;8.56;43.47
3260;BME280;22469;48.150;14.004;2023-02-28T13:17:57;98710.34;;;8.47;43.92
3260;BME280;22469;48.150;14.004;2023-02-28T13:20:36;98713.06;;;8.32;44.47
3260;BME280;22469;48.150;14.004;2023-02-28T13:24:09;98723.94;;;8.51;44.16
3260;BME280;22469;48.150;14.004;2023-02-28T13:26:13;98717.59;;;8.81;43.17
3260;BME280;22469;48.150;14.004;2023-02-28T13:42:47;98706.72;;;8.64;42.41
3260;BME280;22469;48.150;14.004;2023-02-28T13:45:25;98709.91;;;8.83;42.75
3260;BME280;22469;48.150;14.004;2023-02-28T13:47:58;98714.03;;;8.93;42.47
3260;BME280;22469;48.150;14.004;2023-02-28T13:55:53;98717.88;;;9.21;43.14
3260;BME280;22469;48.150;14.004;2023-02-28T14:04:40;98717.53;;;9.44;43.47
3260;BME280;22469;48.150;14.004;2023-02-28T14:07:19;98711.22;;;9.10;43.60
3260;BME280;22469;48.150;14.004;2023-02-28T14:09:59;98713.91;;;8.99;43.94
3260;BME280;22469;48.150;14.004;2023-02-28T14:20:57;98707.41;;;9.86;41.83
3260;BME280;22469;48.150;14.004;2023-02-28T14:37:59;98702.34;;;9.85;42.06
3260;BME280;22469;48.150;14.004;2023-02-28T14:40:34;98703.13;;;9.37;42.51
3260;BME280;22469;48.150;14.004;2023-02-28T14:43:16;98711.00;;;9.25;43.21
3260;BME280;22469;48.150;14.004;2023-02-28T14:45:58;98707.75;;;9.12;43.61
3260;BME280;22469;48.150;14.004;2023-02-28T14:48:27;98710.59;;;9.49;43.69
3260;BME280;22469;48.150;14.004;2023-02-28T14:50:59;98715.66;;;9.53;43.53
3260;BME280;22469;48.150;14.004;2023-02-28T14:53:30;98705.38;;;9.57;42.80
3260;BME280;22469;48.150;14.004;2023-02-28T14:56:02;98713.84;;;9.61;42.62
3260;BME280;22469;48.150;14.004;2023-02-28T14:58:33;98713.25;;;9.43;43.45
3260;BME280;22469;48.150;14.004;2023-02-28T15:01:02;98715.75;;;9.48;43.34
3260;BME280;22469;48.150;14.004;2023-02-28T15:03:34;98715.81;;;9.43;42.93
3260;BME280;22469;48.150;14.004;2023-02-28T15:06:12;98721.94;;;9.33;42.88
3260;BME280;22469;48.150;14.004;2023-02-28T15:08:48;98721.81;;;9.42;44.16
3260;BME280;22469;48.150;14.004;2023-02-28T15:11:19;98723.34;;;8.95;44.14
3260;BME280;22469;48.150;14.004;2023-02-28T15:13:52;98726.63;;;9.07;44.57
3260;BME280;22469;48.150;14.004;2023-02-28T15:16:34;98725.09;;;8.93;44.86
3260;BME280;22469;48.150;14.004;2023-02-28T15:21:43;98722.41;;;9.04;44.46
3260;BME280;22469;48.150;14.004;2023-02-28T15:24:17;98723.44;;;8.92;44.72
3260;BME280;22469;48.150;14.004;2023-02-28T15:27:19;98733.28;;;8.55;45.65
3260;BME280;22469;48.150;14.004;2023-02-28T15:29:57;98733.41;;;8.43;45.77
3260;BME280;22469;48.150;14.004;2023-02-28T15:32:30;98734.31;;;8.39;46.23
3260;BME280;22469;48.150;14.004;2023-02-28T15:40:41;98732.69;;;8.99;45.20
3260;BME280;22469;48.150;14.004;2023-02-28T15:43:17;98732.59;;;9.06;45.33
3260;BME280;22469;48.150;14.004;2023-02-28T15:45:46;98734.75;;;8.73;45.85
3260;BME280;22469;48.150;14.004;2023-02-28T15:48:52;98730.97;;;9.00;45.89
3260;BME280;22469;48.150;14.004;2023-02-28T15:51:29;98735.41;;;8.87;46.08
3260;BME280;22469;48.150;14.004;2023-02-28T15:54:07;98742.50;;;8.68;46.93
3260;BME280;22469;48.150;14.004;2023-02-28T15:56:42;98728.72;;;8.77;45.93
3260;BME280;22469;48.150;14.004;2023-02-28T15:59:19;98726.91;;;8.85;46.12
3260;BME280;22469;48.150;14.004;2023-02-28T16:07:28;98731.00;;;8.26;47.67
3260;BME280;22469;48.150;14.004;2023-02-28T16:09:56;98735.13;;;8.41;47.36
3260;BME280;22469;48.150;14.004;2023-02-28T16:12:27;98740.84;;;8.61;47.70
3260;BME280;22469;48.150;14.004;2023-02-28T16:14:59;98741.06;;;8.44;47.58
3260;BME280;22469;48.150;14.004;2023-02-28T16:17:33;98740.19;;;8.47;47.99
3260;BME280;22469;48.150;14.004;2023-02-28T16:20:12;98750.38;;;8.50;47.58
3260;BME280;22469;48.150;14.004;2023-02-28T16:22:46;98745.63;;;8.13;47.38
3260;BME280;22469;48.150;14.004;2023-02-28T16:25:15;98748.78;;;8.41;47.43
3260;BME280;22469;48.150;14.004;2023-02-28T16:27:47;98748.84;;;8.30;47.51
3260;BME280;22469;48.150;14.004;2023-02-28T16:30:27;98748.91;;;8.27;47.93
3260;BME280;22469;48.150;14.004;2023-02-28T16:32:58;98749.50;;;8.51;47.10
3260;BME280;22469;48.150;14.004;2023-02-28T16:35:25;98751.00;;;8.67;46.88
3260;BME280;22469;48.150;14.004;2023-02-28T16:37:53;98759.56;;;8.66;46.67
3260;BME280;22469;48.150;14.004;2023-02-28T16:40:25;98759.69;;;8.54;46.26
3260;BME280;22469;48.150;14.004;2023-02-28T16:42:58;98763.38;;;8.27;46.48
3260;BME280;22469;48.150;14.004;2023-02-28T16:45:28;98765.84;;;8.36;46.90